sensor_id;sensor_type;location;lat;lon;timestamp;P1;durP1;ratioP1;P2;durP2;ratioP2
33802;SDS011;20110;53.120;5.786;2023-04-19T00:00:56;17.10;;;10.80;;
33802;SDS011;20110;53.120;5.786;2023-04-19T00:03:21;16.20;;;9.90;;
33802;SDS011;20110;53.120;5.786;2023-04-19T00:05:49;15.38;;;10.18;;
33802;SDS011;20110;53.120;5.786;2023-04-19T00:08:18;20.42;;;9.90;;
33802;SDS011;20110;53.120;5.786;2023-04-19T00:10:44;18.35;;;10.23;;
33802;SDS011;20110;53.120;5.786;2023-04-19T00:13:11;16.13;;;10.27;;
33802;SDS011;20110;53.120;5.786;2023-04-19T00:15:37;13.23;;;9.75;;
33802;SDS011;20110;53.120;5.786;2023-04-19T00:18:03;19.30;;;9.80;;
33802;SDS011;20110;53.120;5.786;2023-04-19T00:20:28;14.02;;;9.48;;
33802;SDS011;20110;53.120;5.786;2023-04-19T00:22:54;20.50;;;9.55;;
33802;SDS011;20110;53.120;5.786;2023-04-19T00:25:22;14.02;;;10.18;;
33802;SDS011;20110;53.120;5.786;2023-04-19T00:27:48;14.63;;;9.73;;
33802;SDS011;20110;53.120;5.786;2023-04-19T00:30:14;17.25;;;9.82;;
33802;SDS011;20110;53.120;5.786;2023-04-19T00:32:39;16.90;;;10.43;;
33802;SDS011;20110;53.120;5.786;2023-04-19T00:35:05;16.02;;;10.05;;
33802;SDS011;20110;53.120;5.786;2023-04-19T00:37:31;16.98;;;10.27;;
33802;SDS011;20110;53.120;5.786;2023-04-19T00:39:57;15.25;;;10.00;;
33802;SDS011;20110;53.120;5.786;2023-04-19T00:42:23;15.75;;;10.45;;
33802;SDS011;20110;53.120;5.786;2023-04-19T00:44:49;17.55;;;10.65;;
33802;SDS011;20110;53.120;5.786;2023-04-19T00:47:15;17.33;;;9.70;;
33802;SDS011;20110;53.120;5.786;2023-04-19T00:49:41;17.73;;;10.25;;
33802;SDS011;20110;53.120;5.786;2023-04-19T00:52:07;17.88;;;11.18;;
33802;SDS011;20110;53.120;5.786;2023-04-19T00:54:33;18.48;;;10.52;;
33802;SDS011;20110;53.120;5.786;2023-04-19T00:57:01;18.00;;;11.07;;
33802;SDS011;20110;53.120;5.786;2023-04-19T00:59:27;24.70;;;10.95;;
33802;SDS011;20110;53.120;5.786;2023-04-19T01:01:55;15.32;;;10.68;;
33802;SDS011;20110;53.120;5.786;2023-04-19T01:04:21;15.75;;;10.32;;
33802;SDS011;20110;53.120;5.786;2023-04-19T01:06:47;25.80;;;11.30;;
33802;SDS011;20110;53.120;5.786;2023-04-19T01:09:14;15.18;;;10.15;;
33802;SDS011;20110;53.120;5.786;2023-04-19T01:11:40;24.42;;;10.50;;
33802;SDS011;20110;53.120;5.786;2023-04-19T01:14:06;15.63;;;9.60;;
33802;SDS011;20110;53.120;5.786;2023-04-19T01:16:31;21.70;;;10.73;;
33802;SDS011;20110;53.120;5.786;2023-04-19T01:18:57;16.85;;;10.40;;
33802;SDS011;20110;53.120;5.786;2023-04-19T01:21:23;19.75;;;11.13;;
33802;SDS011;20110;53.120;5.786;2023-04-19T01:23:49;19.63;;;11.07;;
33802;SDS011;20110;53.120;5.786;2023-04-19T01:26:16;20.48;;;11.63;;
33802;SDS011;20110;53.120;5.786;2023-04-19T01:28:43;21.42;;;12.77;;
33802;SDS011;20110;53.120;5.786;2023-04-19T01:31:09;20.92;;;11.10;;
33802;SDS011;20110;53.120;5.786;2023-04-19T01:33:35;22.23;;;10.82;;
33802;SDS011;20110;53.120;5.786;2023-04-19T01:36:01;21.95;;;12.68;;
33802;SDS011;20110;53.120;5.786;2023-04-19T01:38:27;21.70;;;11.68;;
33802;SDS011;20110;53.120;5.786;2023-04-19T01:40:53;20.88;;;11.95;;
33802;SDS011;20110;53.120;5.786;2023-04-19T01:43:21;17.42;;;10.48;;
33802;SDS011;20110;53.120;5.786;2023-04-19T01:45:47;23.40;;;12.23;;
33802;SDS011;20110;53.120;5.786;2023-04-19T01:48:13;22.75;;;11.73;;
33802;SDS011;20110;53.120;5.786;2023-04-19T01:50:39;17.40;;;10.60;;
33802;SDS011;20110;53.120;5.786;2023-04-19T01:53:05;20.38;;;12.02;;
33802;SDS011;20110;53.120;5.786;2023-04-19T01:55:30;26.42;;;12.18;;
33802;SDS011;20110;53.120;5.786;2023-04-19T01:57:56;27.10;;;11.30;;
33802;SDS011;20110;53.120;5.786;2023-04-19T02:00:22;26.85;;;12.77;;
33802;SDS011;20110;53.120;5.786;2023-04-19T02:02:48;20.92;;;12.40;;
33802;SDS011;20110;53.120;5.786;2023-04-19T02:05:15;21.17;;;12.07;;
33802;SDS011;20110;53.120;5.786;2023-04-19T02:07:42;20.83;;;12.52;;
33802;SDS011;20110;53.120;5.786;2023-04-19T02:10:08;24.45;;;12.82;;
33802;SDS011;20110;53.120;5.786;2023-04-19T02:12:36;20.88;;;11.93;;
33802;SDS011;20110;53.120;5.786;2023-04-19T02:15:02;16.52;;;11.43;;
33802;SDS011;20110;53.120;5.786;2023-04-19T02:17:29;20.58;;;11.05;;
33802;SDS011;20110;53.120;5.786;2023-04-19T02:19:55;25.67;;;12.70;;
33802;SDS011;20110;53.120;5.786;2023-04-19T02:22:22;21.83;;;12.88;;
33802;SDS011;20110;53.120;5.786;2023-04-19T02:24:51;17.20;;;12.18;;
33802;SDS011;20110;53.120;5.786;2023-04-19T02:27:17;24.88;;;12.57;;
33802;SDS011;20110;53.120;5.786;2023-04-19T02:29:43;24.92;;;13.23;;
33802;SDS011;20110;53.120;5.786;2023-04-19T02:32:10;26.75;;;14.85;;
33802;SDS011;20110;53.120;5.786;2023-04-19T02:34:38;25.58;;;14.40;;
33802;SDS011;20110;53.120;5.786;2023-04-19T02:37:04;28.45;;;14.27;;
33802;SDS011;20110;53.120;5.786;2023-04-19T02:39:30;27.60;;;14.65;;
33802;SDS011;20110;53.120;5.786;2023-04-19T02:41:56;29.67;;;14.27;;
33802;SDS011;20110;53.120;5.786;2023-04-19T02:44:22;33.85;;;15.02;;
33802;SDS011;20110;53.120;5.786;2023-04-19T02:46:48;28.08;;;15.63;;
33802;SDS011;20110;53.120;5.786;2023-04-19T02:49:15;31.58;;;15.25;;
33802;SDS011;20110;53.120;5.786;2023-04-19T02:51:42;29.05;;;15.68;;
33802;SDS011;20110;53.120;5.786;2023-04-19T02:54:08;25.23;;;15.70;;
33802;SDS011;20110;53.120;5.786;2023-04-19T02:56:36;27.75;;;15.80;;
33802;SDS011;20110;53.120;5.786;2023-04-19T02:59:02;32.38;;;16.77;;
33802;SDS011;20110;53.120;5.786;2023-04-19T03:01:29;31.45;;;16.60;;
33802;SDS011;20110;53.120;5.786;2023-04-19T03:03:55;35.85;;;16.30;;
33802;SDS011;20110;53.120;5.786;2023-04-19T03:06:22;34.63;;;16.25;;
33802;SDS011;20110;53.120;5.786;2023-04-19T03:08:48;30.35;;;15.57;;
33802;SDS011;20110;53.120;5.786;2023-04-19T03:11:15;32.30;;;16.67;;
33802;SDS011;20110;53.120;5.786;2023-04-19T03:13:41;29.95;;;16.00;;
33802;SDS011;20110;53.120;5.786;2023-04-19T03:16:08;27.75;;;15.80;;
33802;SDS011;20110;53.120;5.786;2023-04-19T03:18:34;28.10;;;16.45;;
33802;SDS011;20110;53.120;5.786;2023-04-19T03:21:01;32.67;;;16.48;;
33802;SDS011;20110;53.120;5.786;2023-04-19T03:23:27;31.13;;;15.60;;
33802;SDS011;20110;53.120;5.786;2023-04-19T03:25:54;26.30;;;15.05;;
33802;SDS011;20110;53.120;5.786;2023-04-19T03:28:21;26.83;;;15.27;;
33802;SDS011;20110;53.120;5.786;2023-04-19T03:30:47;28.13;;;15.05;;
33802;SDS011;20110;53.120;5.786;2023-04-19T03:33:14;29.60;;;15.68;;
33802;SDS011;20110;53.120;5.786;2023-04-19T03:35:42;34.30;;;15.20;;
33802;SDS011;20110;53.120;5.786;2023-04-19T03:38:08;28.60;;;15.43;;
33802;SDS011;20110;53.120;5.786;2023-04-19T03:40:35;30.60;;;15.13;;
33802;SDS011;20110;53.120;5.786;2023-04-19T03:43:02;29.90;;;13.95;;
33802;SDS011;20110;53.120;5.786;2023-04-19T03:45:29;26.92;;;14.55;;
33802;SDS011;20110;53.120;5.786;2023-04-19T03:47:55;25.27;;;14.77;;
33802;SDS011;20110;53.120;5.786;2023-04-19T03:50:20;27.48;;;13.43;;
33802;SDS011;20110;53.120;5.786;2023-04-19T03:52:46;27.27;;;15.05;;
33802;SDS011;20110;53.120;5.786;2023-04-19T03:55:12;22.95;;;13.80;;
33802;SDS011;20110;53.120;5.786;2023-04-19T03:57:38;22.90;;;13.27;;
33802;SDS011;20110;53.120;5.786;2023-04-19T04:00:05;20.27;;;12.55;;
33802;SDS011;20110;53.120;5.786;2023-04-19T04:02:32;23.65;;;12.80;;
33802;SDS011;20110;53.120;5.786;2023-04-19T04:04:58;28.25;;;13.05;;
33802;SDS011;20110;53.120;5.786;2023-04-19T04:07:24;20.88;;;12.57;;
33802;SDS011;20110;53.120;5.786;2023-04-19T04:09:50;20.55;;;11.90;;
33802;SDS011;20110;53.120;5.786;2023-04-19T04:12:15;25.73;;;12.45;;
33802;SDS011;20110;53.120;5.786;2023-04-19T04:14:41;24.17;;;13.15;;
33802;SDS011;20110;53.120;5.786;2023-04-19T04:17:07;25.40;;;12.00;;
33802;SDS011;20110;53.120;5.786;2023-04-19T04:19:35;21.50;;;11.05;;
33802;SDS011;20110;53.120;5.786;2023-04-19T04:22:00;23.63;;;11.40;;
33802;SDS011;20110;53.120;5.786;2023-04-19T04:24:26;21.70;;;11.43;;
33802;SDS011;20110;53.120;5.786;2023-04-19T04:26:52;14.48;;;10.55;;
33802;SDS011;20110;53.120;5.786;2023-04-19T04:29:18;20.02;;;13.05;;
33802;SDS011;20110;53.120;5.786;2023-04-19T04:31:44;18.35;;;11.60;;
33802;SDS011;20110;53.120;5.786;2023-04-19T04:34:10;21.35;;;11.90;;
33802;SDS011;20110;53.120;5.786;2023-04-19T04:36:35;18.83;;;11.75;;
33802;SDS011;20110;53.120;5.786;2023-04-19T04:39:02;21.52;;;12.10;;
33802;SDS011;20110;53.120;5.786;2023-04-19T04:41:30;30.17;;;13.43;;
33802;SDS011;20110;53.120;5.786;2023-04-19T04:43:59;20.10;;;11.93;;
33802;SDS011;20110;53.120;5.786;2023-04-19T04:46:28;19.92;;;12.68;;
33802;SDS011;20110;53.120;5.786;2023-04-19T04:48:54;20.13;;;12.38;;
33802;SDS011;20110;53.120;5.786;2023-04-19T04:51:20;21.90;;;12.52;;
33802;SDS011;20110;53.120;5.786;2023-04-19T04:53:46;18.92;;;12.35;;
33802;SDS011;20110;53.120;5.786;2023-04-19T04:56:11;19.85;;;12.63;;
33802;SDS011;20110;53.120;5.786;2023-04-19T04:58:37;26.15;;;11.45;;
33802;SDS011;20110;53.120;5.786;2023-04-19T05:01:03;22.98;;;12.38;;
33802;SDS011;20110;53.120;5.786;2023-04-19T05:03:29;18.52;;;10.57;;
33802;SDS011;20110;53.120;5.786;2023-04-19T05:05:55;24.48;;;12.27;;
33802;SDS011;20110;53.120;5.786;2023-04-19T05:08:20;20.55;;;11.30;;
33802;SDS011;20110;53.120;5.786;2023-04-19T05:10:46;15.50;;;11.05;;
33802;SDS011;20110;53.120;5.786;2023-04-19T05:13:12;18.65;;;11.25;;
33802;SDS011;20110;53.120;5.786;2023-04-19T05:15:38;15.48;;;10.38;;
33802;SDS011;20110;53.120;5.786;2023-04-19T05:18:04;18.33;;;9.75;;
33802;SDS011;20110;53.120;5.786;2023-04-19T05:20:30;18.98;;;9.98;;
33802;SDS011;20110;53.120;5.786;2023-04-19T05:22:58;15.18;;;9.50;;
33802;SDS011;20110;53.120;5.786;2023-04-19T05:25:25;15.75;;;8.48;;
33802;SDS011;20110;53.120;5.786;2023-04-19T05:27:51;15.82;;;9.43;;
33802;SDS011;20110;53.120;5.786;2023-04-19T05:30:17;14.82;;;9.00;;
33802;SDS011;20110;53.120;5.786;2023-04-19T05:32:43;13.32;;;9.07;;
33802;SDS011;20110;53.120;5.786;2023-04-19T05:35:10;13.00;;;8.77;;
33802;SDS011;20110;53.120;5.786;2023-04-19T05:37:36;17.58;;;8.70;;
33802;SDS011;20110;53.120;5.786;2023-04-19T05:40:05;13.88;;;8.68;;
33802;SDS011;20110;53.120;5.786;2023-04-19T05:42:34;15.02;;;8.38;;
33802;SDS011;20110;53.120;5.786;2023-04-19T05:45:00;25.27;;;8.95;;
33802;SDS011;20110;53.120;5.786;2023-04-19T05:47:26;14.20;;;8.13;;
33802;SDS011;20110;53.120;5.786;2023-04-19T05:49:52;14.93;;;7.97;;
33802;SDS011;20110;53.120;5.786;2023-04-19T05:52:17;15.60;;;8.23;;
33802;SDS011;20110;53.120;5.786;2023-04-19T05:54:43;11.98;;;8.05;;
33802;SDS011;20110;53.120;5.786;2023-04-19T05:57:09;15.77;;;8.02;;
33802;SDS011;20110;53.120;5.786;2023-04-19T05:59:35;12.07;;;8.05;;
33802;SDS011;20110;53.120;5.786;2023-04-19T06:02:00;10.45;;;7.63;;
33802;SDS011;20110;53.120;5.786;2023-04-19T06:04:27;14.63;;;6.80;;
33802;SDS011;20110;53.120;5.786;2023-04-19T06:06:52;11.80;;;7.57;;
33802;SDS011;20110;53.120;5.786;2023-04-19T06:09:18;11.45;;;6.63;;
33802;SDS011;20110;53.120;5.786;2023-04-19T06:11:44;10.27;;;6.72;;
33802;SDS011;20110;53.120;5.786;2023-04-19T06:14:10;10.23;;;6.82;;
33802;SDS011;20110;53.120;5.786;2023-04-19T06:16:39;8.50;;;5.80;;
33802;SDS011;20110;53.120;5.786;2023-04-19T06:19:05;10.65;;;5.93;;
33802;SDS011;20110;53.120;5.786;2023-04-19T06:21:34;10.00;;;5.97;;
33802;SDS011;20110;53.120;5.786;2023-04-19T06:24:00;8.80;;;5.63;;
33802;SDS011;20110;53.120;5.786;2023-04-19T06:26:26;11.55;;;5.78;;
33802;SDS011;20110;53.120;5.786;2023-04-19T06:28:51;8.88;;;5.70;;
33802;SDS011;20110;53.120;5.786;2023-04-19T06:31:18;10.27;;;6.32;;
33802;SDS011;20110;53.120;5.786;2023-04-19T06:33:44;8.93;;;5.22;;
33802;SDS011;20110;53.120;5.786;2023-04-19T06:36:10;8.85;;;5.13;;
33802;SDS011;20110;53.120;5.786;2023-04-19T06:38:36;10.65;;;5.40;;
33802;SDS011;20110;53.120;5.786;2023-04-19T06:41:05;7.18;;;5.18;;
33802;SDS011;20110;53.120;5.786;2023-04-19T06:43:33;6.63;;;5.60;;
33802;SDS011;20110;53.120;5.786;2023-04-19T06:45:59;8.65;;;5.97;;
33802;SDS011;20110;53.120;5.786;2023-04-19T06:48:25;11.43;;;4.90;;
33802;SDS011;20110;53.120;5.786;2023-04-19T06:50:52;5.88;;;4.38;;
33802;SDS011;20110;53.120;5.786;2023-04-19T06:53:18;7.03;;;4.78;;
33802;SDS011;20110;53.120;5.786;2023-04-19T06:55:44;9.18;;;4.68;;
33802;SDS011;20110;53.120;5.786;2023-04-19T06:58:11;8.38;;;4.32;;
33802;SDS011;20110;53.120;5.786;2023-04-19T07:00:37;7.05;;;4.45;;
33802;SDS011;20110;53.120;5.786;2023-04-19T07:03:03;5.32;;;4.10;;
33802;SDS011;20110;53.120;5.786;2023-04-19T07:05:29;4.80;;;3.65;;
33802;SDS011;20110;53.120;5.786;2023-04-19T07:07:56;5.28;;;4.13;;
33802;SDS011;20110;53.120;5.786;2023-04-19T07:10:22;5.22;;;4.25;;
33802;SDS011;20110;53.120;5.786;2023-04-19T07:12:48;10.15;;;4.13;;
33802;SDS011;20110;53.120;5.786;2023-04-19T07:15:15;8.13;;;4.65;;
33802;SDS011;20110;53.120;5.786;2023-04-19T07:17:41;3.55;;;2.92;;
33802;SDS011;20110;53.120;5.786;2023-04-19T07:20:06;4.40;;;3.15;;
33802;SDS011;20110;53.120;5.786;2023-04-19T07:22:33;5.88;;;3.75;;
33802;SDS011;20110;53.120;5.786;2023-04-19T07:24:59;6.40;;;3.58;;
33802;SDS011;20110;53.120;5.786;2023-04-19T07:27:25;8.60;;;3.20;;
33802;SDS011;20110;53.120;5.786;2023-04-19T07:29:51;4.03;;;3.25;;
33802;SDS011;20110;53.120;5.786;2023-04-19T07:32:17;12.70;;;3.03;;
33802;SDS011;20110;53.120;5.786;2023-04-19T07:34:43;5.13;;;3.67;;
33802;SDS011;20110;53.120;5.786;2023-04-19T07:37:11;3.67;;;2.97;;
33802;SDS011;20110;53.120;5.786;2023-04-19T07:39:37;3.88;;;2.90;;
33802;SDS011;20110;53.120;5.786;2023-04-19T07:42:03;4.43;;;2.40;;
33802;SDS011;20110;53.120;5.786;2023-04-19T07:44:29;2.38;;;1.98;;
33802;SDS011;20110;53.120;5.786;2023-04-19T07:46:56;2.00;;;1.80;;
33802;SDS011;20110;53.120;5.786;2023-04-19T07:49:21;3.22;;;2.28;;
33802;SDS011;20110;53.120;5.786;2023-04-19T07:51:48;3.63;;;2.17;;
33802;SDS011;20110;53.120;5.786;2023-04-19T07:54:14;6.13;;;2.10;;
33802;SDS011;20110;53.120;5.786;2023-04-19T07:56:41;3.15;;;1.58;;
33802;SDS011;20110;53.120;5.786;2023-04-19T07:59:07;2.13;;;1.75;;
33802;SDS011;20110;53.120;5.786;2023-04-19T08:01:34;6.70;;;1.40;;
33802;SDS011;20110;53.120;5.786;2023-04-19T08:04:00;1.75;;;1.65;;
33802;SDS011;20110;53.120;5.786;2023-04-19T08:06:26;2.55;;;1.55;;
33802;SDS011;20110;53.120;5.786;2023-04-19T08:08:54;6.90;;;1.92;;
33802;SDS011;20110;53.120;5.786;2023-04-19T08:11:20;1.80;;;1.70;;
33802;SDS011;20110;53.120;5.786;2023-04-19T08:13:46;5.90;;;1.35;;
33802;SDS011;20110;53.120;5.786;2023-04-19T08:16:12;1.65;;;1.48;;
33802;SDS011;20110;53.120;5.786;2023-04-19T08:18:37;3.92;;;1.80;;
33802;SDS011;20110;53.120;5.786;2023-04-19T08:21:03;5.88;;;2.10;;
33802;SDS011;20110;53.120;5.786;2023-04-19T08:23:29;5.75;;;2.55;;
33802;SDS011;20110;53.120;5.786;2023-04-19T08:25:55;5.35;;;2.45;;
33802;SDS011;20110;53.120;5.786;2023-04-19T08:28:21;4.63;;;2.13;;
33802;SDS011;20110;53.120;5.786;2023-04-19T08:30:47;3.83;;;2.03;;
33802;SDS011;20110;53.120;5.786;2023-04-19T08:33:13;3.08;;;2.20;;
33802;SDS011;20110;53.120;5.786;2023-04-19T08:35:39;2.65;;;1.90;;
33802;SDS011;20110;53.120;5.786;2023-04-19T08:38:06;2.78;;;1.80;;
33802;SDS011;20110;53.120;5.786;2023-04-19T08:40:33;2.13;;;1.88;;
33802;SDS011;20110;53.120;5.786;2023-04-19T08:43:04;2.38;;;2.17;;
33802;SDS011;20110;53.120;5.786;2023-04-19T08:45:31;4.03;;;2.20;;
33802;SDS011;20110;53.120;5.786;2023-04-19T08:47:57;3.67;;;2.13;;
33802;SDS011;20110;53.120;5.786;2023-04-19T08:50:26;3.05;;;2.00;;
33802;SDS011;20110;53.120;5.786;2023-04-19T08:52:53;10.05;;;2.60;;
33802;SDS011;20110;53.120;5.786;2023-04-19T08:55:19;5.32;;;2.55;;
33802;SDS011;20110;53.120;5.786;2023-04-19T08:57:44;5.00;;;2.65;;
33802;SDS011;20110;53.120;5.786;2023-04-19T09:00:11;2.78;;;2.20;;
33802;SDS011;20110;53.120;5.786;2023-04-19T09:02:45;2.72;;;2.17;;
33802;SDS011;20110;53.120;5.786;2023-04-19T09:05:17;3.80;;;2.20;;
33802;SDS011;20110;53.120;5.786;2023-04-19T09:07:44;3.38;;;2.50;;
33802;SDS011;20110;53.120;5.786;2023-04-19T09:10:15;7.57;;;2.63;;
33802;SDS011;20110;53.120;5.786;2023-04-19T09:13:02;3.33;;;2.05;;
33802;SDS011;20110;53.120;5.786;2023-04-19T09:15:36;3.72;;;1.88;;
33802;SDS011;20110;53.120;5.786;2023-04-19T09:18:08;3.08;;;2.03;;
33802;SDS011;20110;53.120;5.786;2023-04-19T09:20:36;5.05;;;2.13;;
33802;SDS011;20110;53.120;5.786;2023-04-19T09:23:15;1.80;;;1.70;;
33802;SDS011;20110;53.120;5.786;2023-04-19T09:25:58;3.55;;;2.00;;
33802;SDS011;20110;53.120;5.786;2023-04-19T09:28:27;2.97;;;1.85;;
33802;SDS011;20110;53.120;5.786;2023-04-19T09:30:53;2.85;;;2.20;;
33802;SDS011;20110;53.120;5.786;2023-04-19T09:33:33;3.53;;;2.00;;
33802;SDS011;20110;53.120;5.786;2023-04-19T09:36:03;3.72;;;2.25;;
33802;SDS011;20110;53.120;5.786;2023-04-19T09:38:46;2.65;;;2.20;;
33802;SDS011;20110;53.120;5.786;2023-04-19T09:41:14;2.85;;;2.33;;
33802;SDS011;20110;53.120;5.786;2023-04-19T09:43:41;4.18;;;2.40;;
33802;SDS011;20110;53.120;5.786;2023-04-19T09:46:07;11.25;;;2.40;;
33802;SDS011;20110;53.120;5.786;2023-04-19T09:48:33;3.30;;;2.15;;
33802;SDS011;20110;53.120;5.786;2023-04-19T09:51:01;5.47;;;2.72;;
33802;SDS011;20110;53.120;5.786;2023-04-19T09:53:28;3.85;;;2.30;;
33802;SDS011;20110;53.120;5.786;2023-04-19T09:55:59;5.03;;;1.80;;
33802;SDS011;20110;53.120;5.786;2023-04-19T09:58:25;5.05;;;2.22;;
33802;SDS011;20110;53.120;5.786;2023-04-19T10:00:51;2.25;;;1.80;;
33802;SDS011;20110;53.120;5.786;2023-04-19T10:03:19;2.28;;;2.00;;
33802;SDS011;20110;53.120;5.786;2023-04-19T10:05:49;4.03;;;2.92;;
33802;SDS011;20110;53.120;5.786;2023-04-19T10:08:15;2.35;;;2.15;;
33802;SDS011;20110;53.120;5.786;2023-04-19T10:10:43;5.20;;;2.50;;
33802;SDS011;20110;53.120;5.786;2023-04-19T10:13:13;2.70;;;2.17;;
33802;SDS011;20110;53.120;5.786;2023-04-19T10:15:47;2.17;;;2.08;;
33802;SDS011;20110;53.120;5.786;2023-04-19T10:18:13;2.72;;;2.38;;
33802;SDS011;20110;53.120;5.786;2023-04-19T10:20:50;2.63;;;2.35;;
33802;SDS011;20110;53.120;5.786;2023-04-19T10:23:23;3.92;;;2.50;;
33802;SDS011;20110;53.120;5.786;2023-04-19T10:25:54;2.47;;;2.28;;
33802;SDS011;20110;53.120;5.786;2023-04-19T10:28:22;3.90;;;2.28;;
33802;SDS011;20110;53.120;5.786;2023-04-19T10:30:58;3.67;;;2.10;;
33802;SDS011;20110;53.120;5.786;2023-04-19T10:33:27;2.25;;;2.00;;
33802;SDS011;20110;53.120;5.786;2023-04-19T10:36:00;2.38;;;2.17;;
33802;SDS011;20110;53.120;5.786;2023-04-19T10:41:08;2.92;;;2.08;;
33802;SDS011;20110;53.120;5.786;2023-04-19T10:43:47;1.95;;;1.83;;
33802;SDS011;20110;53.120;5.786;2023-04-19T10:46:36;1.95;;;1.83;;
33802;SDS011;20110;53.120;5.786;2023-04-19T10:49:06;1.70;;;1.60;;
33802;SDS011;20110;53.120;5.786;2023-04-19T10:51:37;2.00;;;1.77;;
33802;SDS011;20110;53.120;5.786;2023-04-19T10:56:55;2.97;;;1.75;;
33802;SDS011;20110;53.120;5.786;2023-04-19T10:59:36;1.67;;;1.58;;
33802;SDS011;20110;53.120;5.786;2023-04-19T11:07:15;6.38;;;1.60;;
33802;SDS011;20110;53.120;5.786;2023-04-19T11:09:45;4.53;;;1.52;;
33802;SDS011;20110;53.120;5.786;2023-04-19T11:12:13;2.28;;;1.50;;
33802;SDS011;20110;53.120;5.786;2023-04-19T11:14:46;4.20;;;1.90;;
33802;SDS011;20110;53.120;5.786;2023-04-19T11:17:26;1.63;;;1.52;;
33802;SDS011;20110;53.120;5.786;2023-04-19T11:19:59;2.17;;;1.98;;
33802;SDS011;20110;53.120;5.786;2023-04-19T11:27:39;4.80;;;2.13;;
33802;SDS011;20110;53.120;5.786;2023-04-19T11:30:07;3.08;;;1.90;;
33802;SDS011;20110;53.120;5.786;2023-04-19T11:32:36;1.70;;;1.60;;
33802;SDS011;20110;53.120;5.786;2023-04-19T11:35:09;2.67;;;2.05;;
33802;SDS011;20110;53.120;5.786;2023-04-19T11:37:36;9.60;;;1.63;;
33802;SDS011;20110;53.120;5.786;2023-04-19T11:40:04;1.77;;;1.67;;
33802;SDS011;20110;53.120;5.786;2023-04-19T11:42:31;3.60;;;1.83;;
33802;SDS011;20110;53.120;5.786;2023-04-19T11:44:58;3.63;;;1.88;;
33802;SDS011;20110;53.120;5.786;2023-04-19T11:47:24;1.88;;;1.77;;
33802;SDS011;20110;53.120;5.786;2023-04-19T11:49:53;5.45;;;2.13;;
33802;SDS011;20110;53.120;5.786;2023-04-19T11:52:23;2.08;;;1.98;;
33802;SDS011;20110;53.120;5.786;2023-04-19T11:54:53;5.45;;;2.00;;
33802;SDS011;20110;53.120;5.786;2023-04-19T11:57:26;3.90;;;2.15;;
33802;SDS011;20110;53.120;5.786;2023-04-19T12:00:00;4.32;;;2.05;;
33802;SDS011;20110;53.120;5.786;2023-04-19T12:02:36;2.55;;;2.13;;
33802;SDS011;20110;53.120;5.786;2023-04-19T12:05:12;5.05;;;2.60;;
33802;SDS011;20110;53.120;5.786;2023-04-19T12:10:33;4.97;;;2.03;;
33802;SDS011;20110;53.120;5.786;2023-04-19T12:13:00;3.85;;;1.88;;
33802;SDS011;20110;53.120;5.786;2023-04-19T12:15:44;2.42;;;2.22;;
33802;SDS011;20110;53.120;5.786;2023-04-19T12:18:13;4.28;;;2.20;;
33802;SDS011;20110;53.120;5.786;2023-04-19T12:20:45;7.65;;;2.45;;
33802;SDS011;20110;53.120;5.786;2023-04-19T12:23:13;3.85;;;2.17;;
33802;SDS011;20110;53.120;5.786;2023-04-19T12:25:40;3.60;;;2.50;;
33802;SDS011;20110;53.120;5.786;2023-04-19T12:28:09;2.40;;;2.20;;
33802;SDS011;20110;53.120;5.786;2023-04-19T12:30:35;3.25;;;2.45;;
33802;SDS011;20110;53.120;5.786;2023-04-19T12:33:01;3.05;;;2.38;;
33802;SDS011;20110;53.120;5.786;2023-04-19T12:35:27;5.68;;;2.22;;
33802;SDS011;20110;53.120;5.786;2023-04-19T12:37:54;4.53;;;2.15;;
33802;SDS011;20110;53.120;5.786;2023-04-19T12:40:22;2.97;;;1.80;;
33802;SDS011;20110;53.120;5.786;2023-04-19T12:42:50;6.90;;;2.50;;
33802;SDS011;20110;53.120;5.786;2023-04-19T12:45:16;2.30;;;1.80;;
33802;SDS011;20110;53.120;5.786;2023-04-19T12:47:44;4.45;;;2.33;;
33802;SDS011;20110;53.120;5.786;2023-04-19T12:50:12;2.65;;;2.17;;
33802;SDS011;20110;53.120;5.786;2023-04-19T12:52:40;2.55;;;2.35;;
33802;SDS011;20110;53.120;5.786;2023-04-19T12:55:10;2.58;;;2.20;;
33802;SDS011;20110;53.120;5.786;2023-04-19T12:57:36;2.92;;;2.60;;
33802;SDS011;20110;53.120;5.786;2023-04-19T13:00:01;7.88;;;2.90;;
33802;SDS011;20110;53.120;5.786;2023-04-19T13:02:29;4.43;;;3.53;;
33802;SDS011;20110;53.120;5.786;2023-04-19T13:04:55;3.28;;;2.70;;
33802;SDS011;20110;53.120;5.786;2023-04-19T13:07:21;4.82;;;3.13;;
33802;SDS011;20110;53.120;5.786;2023-04-19T13:09:47;9.50;;;2.75;;
33802;SDS011;20110;53.120;5.786;2023-04-19T13:12:12;4.72;;;3.30;;
33802;SDS011;20110;53.120;5.786;2023-04-19T13:14:38;7.45;;;3.05;;
33802;SDS011;20110;53.120;5.786;2023-04-19T13:17:04;3.70;;;3.10;;
33802;SDS011;20110;53.120;5.786;2023-04-19T13:19:30;3.55;;;3.25;;
33802;SDS011;20110;53.120;5.786;2023-04-19T13:21:56;3.58;;;3.10;;
33802;SDS011;20110;53.120;5.786;2023-04-19T13:24:21;4.45;;;3.13;;
33802;SDS011;20110;53.120;5.786;2023-04-19T13:26:47;3.55;;;2.88;;
33802;SDS011;20110;53.120;5.786;2023-04-19T13:29:13;4.22;;;3.83;;
33802;SDS011;20110;53.120;5.786;2023-04-19T13:31:39;4.95;;;3.60;;
33802;SDS011;20110;53.120;5.786;2023-04-19T13:34:07;4.32;;;3.13;;
33802;SDS011;20110;53.120;5.786;2023-04-19T13:36:34;5.88;;;3.85;;
33802;SDS011;20110;53.120;5.786;2023-04-19T13:39:00;5.90;;;3.78;;
33802;SDS011;20110;53.120;5.786;2023-04-19T13:41:26;5.88;;;3.53;;
33802;SDS011;20110;53.120;5.786;2023-04-19T13:43:51;3.95;;;3.35;;
33802;SDS011;20110;53.120;5.786;2023-04-19T13:46:17;4.80;;;3.60;;
33802;SDS011;20110;53.120;5.786;2023-04-19T13:48:43;6.60;;;3.58;;
33802;SDS011;20110;53.120;5.786;2023-04-19T13:51:09;4.88;;;3.42;;
33802;SDS011;20110;53.120;5.786;2023-04-19T13:53:35;7.50;;;3.25;;
33802;SDS011;20110;53.120;5.786;2023-04-19T13:56:00;9.25;;;3.13;;
33802;SDS011;20110;53.120;5.786;2023-04-19T13:58:26;5.43;;;3.40;;
33802;SDS011;20110;53.120;5.786;2023-04-19T14:00:52;5.25;;;3.30;;
33802;SDS011;20110;53.120;5.786;2023-04-19T14:03:18;6.93;;;3.55;;
33802;SDS011;20110;53.120;5.786;2023-04-19T14:05:46;6.88;;;3.28;;
33802;SDS011;20110;53.120;5.786;2023-04-19T14:08:12;7.38;;;3.42;;
33802;SDS011;20110;53.120;5.786;2023-04-19T14:10:38;6.80;;;3.53;;
33802;SDS011;20110;53.120;5.786;2023-04-19T14:13:04;10.25;;;3.35;;
33802;SDS011;20110;53.120;5.786;2023-04-19T14:15:30;6.60;;;3.38;;
33802;SDS011;20110;53.120;5.786;2023-04-19T14:17:56;5.53;;;3.28;;
33802;SDS011;20110;53.120;5.786;2023-04-19T14:20:22;5.32;;;3.28;;
33802;SDS011;20110;53.120;5.786;2023-04-19T14:22:48;4.72;;;2.92;;
33802;SDS011;20110;53.120;5.786;2023-04-19T14:25:14;5.40;;;3.35;;
33802;SDS011;20110;53.120;5.786;2023-04-19T14:27:41;6.28;;;4.15;;
33802;SDS011;20110;53.120;5.786;2023-04-19T14:30:08;7.15;;;3.28;;
33802;SDS011;20110;53.120;5.786;2023-04-19T14:32:35;7.07;;;3.78;;
33802;SDS011;20110;53.120;5.786;2023-04-19T14:35:02;5.35;;;3.72;;
33802;SDS011;20110;53.120;5.786;2023-04-19T14:37:28;10.55;;;3.85;;
33802;SDS011;20110;53.120;5.786;2023-04-19T14:39:54;8.68;;;3.40;;
33802;SDS011;20110;53.120;5.786;2023-04-19T14:42:20;10.63;;;2.78;;
33802;SDS011;20110;53.120;5.786;2023-04-19T14:44:46;7.35;;;3.72;;
33802;SDS011;20110;53.120;5.786;2023-04-19T14:47:15;8.27;;;3.97;;
33802;SDS011;20110;53.120;5.786;2023-04-19T14:49:40;5.00;;;3.35;;
33802;SDS011;20110;53.120;5.786;2023-04-19T14:52:06;6.15;;;3.45;;
33802;SDS011;20110;53.120;5.786;2023-04-19T14:54:32;5.00;;;3.40;;
33802;SDS011;20110;53.120;5.786;2023-04-19T14:56:58;9.60;;;3.85;;